sensor_id;sensor_type;location;lat;lon;timestamp;pressure;altitude;pressure_sealevel;temperature;humidity
18264;BME280;9258;48.668;9.172;2022-08-24T00:00:04;96732.38;;;19.87;73.36
18264;BME280;9258;48.668;9.172;2022-08-24T00:03:06;96726.91;;;19.78;74.02
18264;BME280;9258;48.668;9.172;2022-08-24T00:06:14;96733.56;;;19.75;73.96
18264;BME280;9258;48.668;9.172;2022-08-24T00:09:17;96727.47;;;19.75;74.26
18264;BME280;9258;48.668;9.172;2022-08-24T00:12:20;96725.38;;;19.72;74.29
18264;BME280;9258;48.668;9.172;2022-08-24T00:15:21;96728.88;;;19.67;74.67
18264;BME280;9258;48.668;9.172;2022-08-24T00:18:24;96721.13;;;19.71;74.46
18264;BME280;9258;48.668;9.172;2022-08-24T00:21:26;96720.56;;;19.74;74.28
18264;BME280;9258;48.668;9.172;2022-08-24T00:24:28;96721.38;;;19.74;73.98
18264;BME280;9258;48.668;9.172;2022-08-24T00:27:30;96720.56;;;19.74;74.34
18264;BME280;9258;48.668;9.172;2022-08-24T00:30:32;96725.66;;;19.70;74.59
18264;BME280;9258;48.668;9.172;2022-08-24T00:33:35;96726.78;;;19.64;74.83
18264;BME280;9258;48.668;9.172;2022-08-24T00:36:36;96724.19;;;19.59;75.21
18264;BME280;9258;48.668;9.172;2022-08-24T00:39:39;96719.34;;;19.66;75.02
18264;BME280;9258;48.668;9.172;2022-08-24T00:42:40;96716.50;;;19.58;75.20
18264;BME280;9258;48.668;9.172;2022-08-24T00:45:47;96715.78;;;19.47;75.76
18264;BME280;9258;48.668;9.172;2022-08-24T00:49:00;96717.44;;;19.43;76.08
18264;BME280;9258;48.668;9.172;2022-08-24T00:52:06;96710.81;;;19.40;76.06
18264;BME280;9258;48.668;9.172;2022-08-24T00:55:14;96710.84;;;19.35;76.36
18264;BME280;9258;48.668;9.172;2022-08-24T00:58:19;96716.41;;;19.39;76.19
18264;BME280;9258;48.668;9.172;2022-08-24T01:01:22;96715.59;;;19.38;76.05
18264;BME280;9258;48.668;9.172;2022-08-24T01:04:30;96708.69;;;19.42;75.51
18264;BME280;9258;48.668;9.172;2022-08-24T01:07:33;96708.97;;;19.41;75.51
18264;BME280;9258;48.668;9.172;2022-08-24T01:10:40;96705.25;;;19.42;75.24
18264;BME280;9258;48.668;9.172;2022-08-24T01:13:44;96709.75;;;19.41;75.10
18264;BME280;9258;48.668;9.172;2022-08-24T01:16:47;96708.22;;;19.35;75.73
18264;BME280;9258;48.668;9.172;2022-08-24T01:20:08;96712.25;;;19.28;76.44
18264;BME280;9258;48.668;9.172;2022-08-24T01:23:23;96715.53;;;19.20;78.32
18264;BME280;9258;48.668;9.172;2022-08-24T01:26:27;96715.56;;;19.15;77.17
18264;BME280;9258;48.668;9.172;2022-08-24T01:29:31;96723.34;;;19.06;78.82
18264;BME280;9258;48.668;9.172;2022-08-24T01:32:34;96723.91;;;18.98;78.27
18264;BME280;9258;48.668;9.172;2022-08-24T01:35:37;96720.28;;;18.89;78.80
18264;BME280;9258;48.668;9.172;2022-08-24T01:38:41;96726.63;;;18.88;78.50
18264;BME280;9258;48.668;9.172;2022-08-24T01:41:44;96732.22;;;18.86;80.47
18264;BME280;9258;48.668;9.172;2022-08-24T01:44:46;96722.19;;;18.83;79.60
18264;BME280;9258;48.668;9.172;2022-08-24T01:47:47;96733.34;;;18.75;79.89
18264;BME280;9258;48.668;9.172;2022-08-24T01:50:49;96733.88;;;18.77;80.93
18264;BME280;9258;48.668;9.172;2022-08-24T01:53:53;96741.09;;;18.72;80.30
18264;BME280;9258;48.668;9.172;2022-08-24T01:56:54;96734.41;;;18.74;80.59
18264;BME280;9258;48.668;9.172;2022-08-24T01:59:56;96734.47;;;18.69;81.16
18264;BME280;9258;48.668;9.172;2022-08-24T02:02:57;96737.69;;;18.61;81.21
18264;BME280;9258;48.668;9.172;2022-08-24T02:05:59;96734.50;;;18.64;80.31
18264;BME280;9258;48.668;9.172;2022-08-24T02:09:03;96740.09;;;18.52;80.79
18264;BME280;9258;48.668;9.172;2022-08-24T02:12:06;96735.66;;;18.43;81.88
18264;BME280;9258;48.668;9.172;2022-08-24T02:15:09;96729.31;;;18.44;83.20
18264;BME280;9258;48.668;9.172;2022-08-24T02:18:11;96734.88;;;18.42;83.04
18264;BME280;9258;48.668;9.172;2022-08-24T02:21:13;96735.94;;;18.41;82.16
18264;BME280;9258;48.668;9.172;2022-08-24T02:24:17;96738.06;;;18.39;83.86
18264;BME280;9258;48.668;9.172;2022-08-24T02:27:19;96740.44;;;18.35;83.58
18264;BME280;9258;48.668;9.172;2022-08-24T02:30:20;96739.44;;;18.31;82.18
18264;BME280;9258;48.668;9.172;2022-08-24T02:33:23;96743.88;;;18.36;83.50
18264;BME280;9258;48.668;9.172;2022-08-24T02:36:24;96740.22;;;18.32;84.51
18264;BME280;9258;48.668;9.172;2022-08-24T02:39:27;96739.16;;;18.28;83.65
18264;BME280;9258;48.668;9.172;2022-08-24T02:42:29;96739.44;;;18.26;83.46
18264;BME280;9258;48.668;9.172;2022-08-24T02:45:31;96736.00;;;18.26;83.51
18264;BME280;9258;48.668;9.172;2022-08-24T02:48:32;96729.44;;;18.18;83.43
18264;BME280;9258;48.668;9.172;2022-08-24T02:51:34;96732.66;;;18.10;84.12
18264;BME280;9258;48.668;9.172;2022-08-24T02:54:37;96722.88;;;18.06;84.07
18264;BME280;9258;48.668;9.172;2022-08-24T02:57:41;96733.44;;;18.11;85.22
18264;BME280;9258;48.668;9.172;2022-08-24T03:00:44;96728.69;;;18.03;84.82
18264;BME280;9258;48.668;9.172;2022-08-24T03:03:46;96728.41;;;18.09;85.46
18264;BME280;9258;48.668;9.172;2022-08-24T03:06:48;96725.78;;;18.09;84.96
18264;BME280;9258;48.668;9.172;2022-08-24T03:09:50;96725.25;;;18.07;85.25
18264;BME280;9258;48.668;9.172;2022-08-24T03:12:53;96731.59;;;18.01;85.38
18264;BME280;9258;48.668;9.172;2022-08-24T03:15:57;96721.84;;;17.96;86.18
18264;BME280;9258;48.668;9.172;2022-08-24T03:18:59;96737.22;;;17.89;85.93
18264;BME280;9258;48.668;9.172;2022-08-24T03:22:02;96733.53;;;17.80;87.24
18264;BME280;9258;48.668;9.172;2022-08-24T03:25:06;96734.91;;;17.73;88.09
18264;BME280;9258;48.668;9.172;2022-08-24T03:28:07;96741.25;;;17.67;88.81
18264;BME280;9258;48.668;9.172;2022-08-24T03:31:09;96738.34;;;17.63;88.69
18264;BME280;9258;48.668;9.172;2022-08-24T03:34:11;96730.41;;;17.63;89.08
18264;BME280;9258;48.668;9.172;2022-08-24T03:37:13;96736.22;;;17.60;89.34
18264;BME280;9258;48.668;9.172;2022-08-24T03:40:16;96728.03;;;17.61;89.71
18264;BME280;9258;48.668;9.172;2022-08-24T03:43:19;96732.25;;;17.68;89.87
18264;BME280;9258;48.668;9.172;2022-08-24T03:46:38;96729.34;;;17.59;90.35
18264;BME280;9258;48.668;9.172;2022-08-24T03:49:40;96725.13;;;17.53;90.32
18264;BME280;9258;48.668;9.172;2022-08-24T03:52:42;96726.72;;;17.49;90.18
18264;BME280;9258;48.668;9.172;2022-08-24T03:55:45;96729.09;;;17.40;91.47
18264;BME280;9258;48.668;9.172;2022-08-24T03:58:46;96736.00;;;17.31;91.20
18264;BME280;9258;48.668;9.172;2022-08-24T04:01:48;96736.00;;;17.31;91.65
18264;BME280;9258;48.668;9.172;2022-08-24T04:04:49;96728.09;;;17.26;91.20
18264;BME280;9258;48.668;9.172;2022-08-24T04:07:51;96731.78;;;17.25;92.19
18264;BME280;9258;48.668;9.172;2022-08-24T04:10:56;96731.78;;;17.20;93.28
18264;BME280;9258;48.668;9.172;2022-08-24T04:13:58;96738.94;;;17.14;93.72
18264;BME280;9258;48.668;9.172;2022-08-24T04:16:59;96733.34;;;17.16;91.92
18264;BME280;9258;48.668;9.172;2022-08-24T04:20:01;96732.06;;;17.13;93.47
18264;BME280;9258;48.668;9.172;2022-08-24T04:23:03;96737.84;;;17.15;93.41
18264;BME280;9258;48.668;9.172;2022-08-24T04:26:06;96738.91;;;17.19;92.45
18264;BME280;9258;48.668;9.172;2022-08-24T04:29:09;96747.63;;;17.20;92.87
18264;BME280;9258;48.668;9.172;2022-08-24T04:32:10;96736.00;;;17.21;91.66
18264;BME280;9258;48.668;9.172;2022-08-24T04:35:14;96743.41;;;17.34;91.75
18264;BME280;9258;48.668;9.172;2022-08-24T04:38:17;96741.81;;;17.23;91.85
18264;BME280;9258;48.668;9.172;2022-08-24T04:41:20;96743.13;;;17.15;92.20
18264;BME280;9258;48.668;9.172;2022-08-24T04:44:22;96748.44;;;17.10;93.46
18264;BME280;9258;48.668;9.172;2022-08-24T04:47:23;96749.47;;;17.19;94.02
18264;BME280;9258;48.668;9.172;2022-08-24T04:50:25;96760.31;;;17.18;93.81
18264;BME280;9258;48.668;9.172;2022-08-24T04:53:27;96763.22;;;17.21;92.66
18264;BME280;9258;48.668;9.172;2022-08-24T04:56:30;96759.50;;;17.27;92.55
18264;BME280;9258;48.668;9.172;2022-08-24T04:59:31;96767.19;;;17.44;92.47
18264;BME280;9258;48.668;9.172;2022-08-24T05:02:33;96763.97;;;17.52;92.51
18264;BME280;9258;48.668;9.172;2022-08-24T05:05:38;96765.56;;;17.63;91.42
18264;BME280;9258;48.668;9.172;2022-08-24T05:08:40;96762.41;;;17.72;91.48
18264;BME280;9258;48.668;9.172;2022-08-24T05:11:43;96767.66;;;17.87;89.84
18264;BME280;9258;48.668;9.172;2022-08-24T05:14:46;96760.72;;;18.01;88.50
18264;BME280;9258;48.668;9.172;2022-08-24T05:17:48;96769.13;;;18.13;88.06
18264;BME280;9258;48.668;9.172;2022-08-24T05:20:49;96775.47;;;18.17;87.17
18264;BME280;9258;48.668;9.172;2022-08-24T05:23:51;96771.72;;;18.33;86.76
18264;BME280;9258;48.668;9.172;2022-08-24T05:26:54;96763.72;;;18.44;86.11
18264;BME280;9258;48.668;9.172;2022-08-24T05:29:55;96765.78;;;18.52;85.69
18264;BME280;9258;48.668;9.172;2022-08-24T05:32:57;96766.00;;;18.70;84.59
18264;BME280;9258;48.668;9.172;2022-08-24T05:35:58;96767.72;;;18.85;83.08
18264;BME280;9258;48.668;9.172;2022-08-24T05:39:04;96761.00;;;18.98;82.22
18264;BME280;9258;48.668;9.172;2022-08-24T05:42:07;96762.84;;;19.02;81.83
18264;BME280;9258;48.668;9.172;2022-08-24T05:45:10;96767.00;;;19.14;80.45
18264;BME280;9258;48.668;9.172;2022-08-24T05:48:11;96765.25;;;19.33;79.53
18264;BME280;9258;48.668;9.172;2022-08-24T05:51:13;96770.16;;;19.50;79.45
18264;BME280;9258;48.668;9.172;2022-08-24T05:54:14;96767.66;;;19.63;77.46
18264;BME280;9258;48.668;9.172;2022-08-24T05:57:17;96781.66;;;19.69;77.07
18264;BME280;9258;48.668;9.172;2022-08-24T06:00:20;96772.31;;;19.76;76.95
18264;BME280;9258;48.668;9.172;2022-08-24T06:03:22;96780.50;;;20.04;75.67
18264;BME280;9258;48.668;9.172;2022-08-24T06:06:24;96784.50;;;20.25;76.40
18264;BME280;9258;48.668;9.172;2022-08-24T06:09:26;96788.66;;;20.36;77.24
18264;BME280;9258;48.668;9.172;2022-08-24T06:12:29;96789.81;;;20.49;75.16
18264;BME280;9258;48.668;9.172;2022-08-24T06:15:31;96797.38;;;20.61;76.13
18264;BME280;9258;48.668;9.172;2022-08-24T06:18:33;96798.44;;;20.60;77.38
18264;BME280;9258;48.668;9.172;2022-08-24T06:21:35;96793.13;;;20.78;75.37
18264;BME280;9258;48.668;9.172;2022-08-24T06:24:37;96792.75;;;21.04;69.17
18264;BME280;9258;48.668;9.172;2022-08-24T06:27:57;96788.53;;;21.22;66.12
18264;BME280;9258;48.668;9.172;2022-08-24T06:31:02;96786.78;;;21.31;70.19
18264;BME280;9258;48.668;9.172;2022-08-24T06:34:04;96791.44;;;21.39;73.79
18264;BME280;9258;48.668;9.172;2022-08-24T06:37:05;96784.56;;;21.51;73.27
18264;BME280;9258;48.668;9.172;2022-08-24T06:40:08;96797.91;;;21.65;74.67
18264;BME280;9258;48.668;9.172;2022-08-24T06:43:11;96791.03;;;21.78;74.70
18264;BME280;9258;48.668;9.172;2022-08-24T06:46:13;96792.25;;;21.85;73.63
18264;BME280;9258;48.668;9.172;2022-08-24T06:49:14;96785.97;;;22.09;60.53
18264;BME280;9258;48.668;9.172;2022-08-24T06:52:16;96802.72;;;22.37;59.22
18264;BME280;9258;48.668;9.172;2022-08-24T06:55:18;96806.09;;;22.42;58.63
18264;BME280;9258;48.668;9.172;2022-08-24T06:58:21;96804.19;;;22.56;57.82
18264;BME280;9258;48.668;9.172;2022-08-24T07:01:25;96813.38;;;22.78;59.29
18264;BME280;9258;48.668;9.172;2022-08-24T07:04:27;96805.53;;;23.17;55.41
18264;BME280;9258;48.668;9.172;2022-08-24T07:07:29;96809.75;;;23.54;55.81
18264;BME280;9258;48.668;9.172;2022-08-24T07:10:31;96807.38;;;23.84;57.18
18264;BME280;9258;48.668;9.172;2022-08-24T07:13:35;96815.72;;;24.22;54.52
18264;BME280;9258;48.668;9.172;2022-08-24T07:16:36;96808.00;;;24.68;54.85
18264;BME280;9258;48.668;9.172;2022-08-24T07:19:38;96815.78;;;25.22;53.75
18264;BME280;9258;48.668;9.172;2022-08-24T07:22:39;96818.75;;;25.63;52.40
18264;BME280;9258;48.668;9.172;2022-08-24T07:25:41;96817.41;;;25.95;51.36
18264;BME280;9258;48.668;9.172;2022-08-24T07:28:44;96824.50;;;26.00;50.25
18264;BME280;9258;48.668;9.172;2022-08-24T07:31:46;96818.41;;;26.58;48.08
18264;BME280;9258;48.668;9.172;2022-08-24T07:34:48;96826.47;;;27.08;47.11
18264;BME280;9258;48.668;9.172;2022-08-24T07:37:49;96833.56;;;27.46;45.34
18264;BME280;9258;48.668;9.172;2022-08-24T07:40:51;96837.41;;;27.78;44.42
18264;BME280;9258;48.668;9.172;2022-08-24T07:43:54;96838.94;;;28.12;43.04
18264;BME280;9258;48.668;9.172;2022-08-24T07:46:56;96833.59;;;28.24;42.76
18264;BME280;9258;48.668;9.172;2022-08-24T07:49:58;96839.09;;;28.52;42.20
18264;BME280;9258;48.668;9.172;2022-08-24T07:52:59;96837.13;;;28.16;42.46
18264;BME280;9258;48.668;9.172;2022-08-24T07:56:01;96837.00;;;27.88;43.40
18264;BME280;9258;48.668;9.172;2022-08-24T07:59:04;96836.81;;;28.17;41.75
18264;BME280;9258;48.668;9.172;2022-08-24T08:02:06;96838.13;;;29.21;40.42
18264;BME280;9258;48.668;9.172;2022-08-24T08:05:10;96840.41;;;29.90;38.87
18264;BME280;9258;48.668;9.172;2022-08-24T08:08:11;96851.34;;;30.41;38.26
18264;BME280;9258;48.668;9.172;2022-08-24T08:11:13;96850.72;;;30.79;37.32
18264;BME280;9258;48.668;9.172;2022-08-24T08:14:16;96851.38;;;31.27;35.23
18264;BME280;9258;48.668;9.172;2022-08-24T08:17:18;96851.09;;;31.51;36.01
18264;BME280;9258;48.668;9.172;2022-08-24T08:20:19;96859.28;;;31.74;34.00
18264;BME280;9258;48.668;9.172;2022-08-24T08:23:21;96850.66;;;31.88;33.84
18264;BME280;9258;48.668;9.172;2022-08-24T08:26:41;96849.38;;;32.50;32.62
18264;BME280;9258;48.668;9.172;2022-08-24T08:29:44;96857.25;;;32.81;32.24
18264;BME280;9258;48.668;9.172;2022-08-24T08:32:46;96856.75;;;33.02;32.02
18264;BME280;9258;48.668;9.172;2022-08-24T08:35:48;96853.91;;;32.91;31.93
18264;BME280;9258;48.668;9.172;2022-08-24T08:38:50;96864.47;;;33.26;31.41
18264;BME280;9258;48.668;9.172;2022-08-24T08:42:11;96856.44;;;33.71;29.17
18264;BME280;9258;48.668;9.172;2022-08-24T08:45:26;96854.06;;;33.99;28.50
18264;BME280;9258;48.668;9.172;2022-08-24T08:48:53;96851.38;;;34.40;28.46
18264;BME280;9258;48.668;9.172;2022-08-24T08:52:17;96851.16;;;34.66;27.62
18264;BME280;9258;48.668;9.172;2022-08-24T08:55:29;96850.19;;;34.88;26.65
18264;BME280;9258;48.668;9.172;2022-08-24T08:58:45;96846.16;;;35.37;25.66
18264;BME280;9258;48.668;9.172;2022-08-24T09:01:58;96838.06;;;35.55;24.52
18264;BME280;9258;48.668;9.172;2022-08-24T09:05:20;96842.00;;;35.71;24.61
18264;BME280;9258;48.668;9.172;2022-08-24T09:08:39;96840.47;;;35.78;24.05
18264;BME280;9258;48.668;9.172;2022-08-24T09:11:53;96839.75;;;35.98;23.23
18264;BME280;9258;48.668;9.172;2022-08-24T09:15:11;96833.94;;;36.28;22.43
18264;BME280;9258;48.668;9.172;2022-08-24T09:18:31;96845.22;;;36.27;22.49
18264;BME280;9258;48.668;9.172;2022-08-24T09:21:59;96831.59;;;36.73;22.27
18264;BME280;9258;48.668;9.172;2022-08-24T09:25:09;96834.22;;;37.08;22.19
18264;BME280;9258;48.668;9.172;2022-08-24T09:28:36;96836.56;;;37.17;21.00
18264;BME280;9258;48.668;9.172;2022-08-24T09:31:50;96835.72;;;37.34;21.35
18264;BME280;9258;48.668;9.172;2022-08-24T09:34:59;96830.31;;;37.24;20.76
18264;BME280;9258;48.668;9.172;2022-08-24T09:38:13;96838.97;;;36.62;21.42
18264;BME280;9258;48.668;9.172;2022-08-24T09:41:32;96830.03;;;36.68;22.29
18264;BME280;9258;48.668;9.172;2022-08-24T09:45:10;96829.25;;;36.57;22.29
18264;BME280;9258;48.668;9.172;2022-08-24T09:52:10;96828.09;;;36.44;22.31
18264;BME280;9258;48.668;9.172;2022-08-24T09:55:45;96830.03;;;36.75;22.63
18264;BME280;9258;48.668;9.172;2022-08-24T09:59:03;96832.38;;;36.77;22.96
18264;BME280;9258;48.668;9.172;2022-08-24T10:02:26;96826.91;;;36.73;22.55
18264;BME280;9258;48.668;9.172;2022-08-24T10:05:44;96828.47;;;36.64;23.04
18264;BME280;9258;48.668;9.172;2022-08-24T10:08:59;96821.47;;;36.49;23.08
18264;BME280;9258;48.668;9.172;2022-08-24T10:12:06;96821.84;;;36.75;22.98
18264;BME280;9258;48.668;9.172;2022-08-24T10:15:16;96817.91;;;36.87;22.82
18264;BME280;9258;48.668;9.172;2022-08-24T10:18:35;96824.00;;;37.37;22.30
18264;BME280;9258;48.668;9.172;2022-08-24T10:21:47;96812.53;;;37.74;21.96
18264;BME280;9258;48.668;9.172;2022-08-24T10:25:02;96811.13;;;38.59;21.52
18264;BME280;9258;48.668;9.172;2022-08-24T10:28:27;96813.25;;;38.78;20.79
18264;BME280;9258;48.668;9.172;2022-08-24T10:31:40;96806.31;;;39.08;21.57
18264;BME280;9258;48.668;9.172;2022-08-24T10:34:58;96807.31;;;39.55;20.52
18264;BME280;9258;48.668;9.172;2022-08-24T10:38:21;96809.75;;;40.03;20.11
18264;BME280;9258;48.668;9.172;2022-08-24T10:46:00;96806.50;;;40.35;20.10
18264;BME280;9258;48.668;9.172;2022-08-24T10:49:54;96806.44;;;40.62;19.12
18264;BME280;9258;48.668;9.172;2022-08-24T10:53:13;96793.56;;;40.36;19.62
18264;BME280;9258;48.668;9.172;2022-08-24T10:56:19;96788.13;;;39.82;19.76
18264;BME280;9258;48.668;9.172;2022-08-24T10:59:27;96788.94;;;39.21;19.59
18264;BME280;9258;48.668;9.172;2022-08-24T11:02:33;96788.50;;;39.84;19.10
18264;BME280;9258;48.668;9.172;2022-08-24T11:05:40;96790.16;;;40.05;18.21
18264;BME280;9258;48.668;9.172;2022-08-24T11:08:50;96802.94;;;40.38;18.57
18264;BME280;9258;48.668;9.172;2022-08-24T11:11:52;96800.31;;;40.31;17.44
18264;BME280;9258;48.668;9.172;2022-08-24T11:14:57;96793.50;;;40.16;17.30
18264;BME280;9258;48.668;9.172;2022-08-24T11:18:01;96792.53;;;40.49;17.31
18264;BME280;9258;48.668;9.172;2022-08-24T11:21:03;96791.41;;;40.47;17.62
18264;BME280;9258;48.668;9.172;2022-08-24T11:24:08;96787.44;;;40.28;18.60
18264;BME280;9258;48.668;9.172;2022-08-24T11:27:25;96786.38;;;40.45;17.83
18264;BME280;9258;48.668;9.172;2022-08-24T11:30:31;96781.63;;;40.46;17.16
18264;BME280;9258;48.668;9.172;2022-08-24T11:33:45;96775.47;;;40.61;17.69
18264;BME280;9258;48.668;9.172;2022-08-24T11:36:47;96769.97;;;40.18;18.58
18264;BME280;9258;48.668;9.172;2022-08-24T11:39:48;96770.19;;;39.50;18.04
18264;BME280;9258;48.668;9.172;2022-08-24T11:43:15;96766.13;;;39.01;18.77
18264;BME280;9258;48.668;9.172;2022-08-24T11:46:27;96762.88;;;39.44;18.53
18264;BME280;9258;48.668;9.172;2022-08-24T11:49:40;96767.00;;;39.55;18.79
18264;BME280;9258;48.668;9.172;2022-08-24T11:52:54;96765.03;;;39.56;19.04
18264;BME280;9258;48.668;9.172;2022-08-24T11:56:06;96767.88;;;39.49;18.66
18264;BME280;9258;48.668;9.172;2022-08-24T11:59:15;96772.53;;;39.79;18.71
18264;BME280;9258;48.668;9.172;2022-08-24T12:02:25;96763.84;;;39.84;17.79
18264;BME280;9258;48.668;9.172;2022-08-24T12:05:37;96757.53;;;40.10;17.81
18264;BME280;9258;48.668;9.172;2022-08-24T12:08:45;96760.16;;;40.84;17.48
18264;BME280;9258;48.668;9.172;2022-08-24T12:11:57;96768.69;;;40.89;18.20
18264;BME280;9258;48.668;9.172;2022-08-24T12:15:04;96752.44;;;41.18;18.02
18264;BME280;9258;48.668;9.172;2022-08-24T12:18:21;96751.81;;;41.47;17.71
18264;BME280;9258;48.668;9.172;2022-08-24T12:21:30;96750.78;;;41.77;16.98
18264;BME280;9258;48.668;9.172;2022-08-24T12:24:34;96746.56;;;42.04;17.67
18264;BME280;9258;48.668;9.172;2022-08-24T12:27:39;96748.59;;;41.84;17.38
18264;BME280;9258;48.668;9.172;2022-08-24T12:30:40;96744.00;;;42.14;17.29
18264;BME280;9258;48.668;9.172;2022-08-24T12:33:47;96752.81;;;42.21;16.73
18264;BME280;9258;48.668;9.172;2022-08-24T12:36:56;96745.47;;;42.02;16.25
18264;BME280;9258;48.668;9.172;2022-08-24T12:40:07;96741.16;;;42.01;16.47
18264;BME280;9258;48.668;9.172;2022-08-24T12:43:16;96744.38;;;41.80;16.35
18264;BME280;9258;48.668;9.172;2022-08-24T12:46:22;96748.28;;;41.66;15.99
18264;BME280;9258;48.668;9.172;2022-08-24T12:49:29;96747.41;;;41.69;15.70
18264;BME280;9258;48.668;9.172;2022-08-24T12:53:09;96741.53;;;41.15;16.28
18264;BME280;9258;48.668;9.172;2022-08-24T12:56:46;96740.91;;;40.87;16.70
18264;BME280;9258;48.668;9.172;2022-08-24T12:59:54;96733.25;;;40.36;18.01
18264;BME280;9258;48.668;9.172;2022-08-24T13:03:00;96742.06;;;39.73;18.24
18264;BME280;9258;48.668;9.172;2022-08-24T13:06:07;96743.31;;;39.42;18.91
18264;BME280;9258;48.668;9.172;2022-08-24T13:09:16;96740.19;;;39.43;16.63
18264;BME280;9258;48.668;9.172;2022-08-24T13:12:46;96731.84;;;39.50;17.65
18264;BME280;9258;48.668;9.172;2022-08-24T13:16:00;96733.19;;;39.66;17.37
18264;BME280;9258;48.668;9.172;2022-08-24T13:19:14;96722.44;;;39.51;17.58
18264;BME280;9258;48.668;9.172;2022-08-24T13:22:44;96713.16;;;39.15;17.38
18264;BME280;9258;48.668;9.172;2022-08-24T13:25:53;96720.72;;;38.73;18.13
18264;BME280;9258;48.668;9.172;2022-08-24T13:29:07;96723.75;;;38.00;18.73
18264;BME280;9258;48.668;9.172;2022-08-24T13:32:14;96714.53;;;37.80;19.51
18264;BME280;9258;48.668;9.172;2022-08-24T13:35:32;96708.41;;;37.62;19.33
18264;BME280;9258;48.668;9.172;2022-08-24T13:38:53;96716.53;;;37.17;19.41
18264;BME280;9258;48.668;9.172;2022-08-24T13:42:04;96713.84;;;36.99;20.53
18264;BME280;9258;48.668;9.172;2022-08-24T13:45:21;96693.00;;;36.36;22.06
18264;BME280;9258;48.668;9.172;2022-08-24T13:48:41;96700.81;;;36.05;22.22
18264;BME280;9258;48.668;9.172;2022-08-24T13:51:51;96694.22;;;35.71;22.76
18264;BME280;9258;48.668;9.172;2022-08-24T13:55:14;96699.25;;;35.37;23.19
18264;BME280;9258;48.668;9.172;2022-08-24T13:58:34;96702.25;;;35.07;24.51
18264;BME280;9258;48.668;9.172;2022-08-24T14:01:58;96696.22;;;34.62;23.43
18264;BME280;9258;48.668;9.172;2022-08-24T14:05:12;96700.06;;;34.54;24.08
18264;BME280;9258;48.668;9.172;2022-08-24T14:08:31;96698.22;;;34.11;24.65
18264;BME280;9258;48.668;9.172;2022-08-24T14:15:18;96684.94;;;33.95;25.86
18264;BME280;9258;48.668;9.172;2022-08-24T14:18:28;96683.66;;;33.82;25.80
18264;BME280;9258;48.668;9.172;2022-08-24T14:21:36;96687.41;;;33.67;26.29
18264;BME280;9258;48.668;9.172;2022-08-24T14:24:44;96685.81;;;33.62;26.07
18264;BME280;9258;48.668;9.172;2022-08-24T14:27:49;96676.47;;;33.56;26.31
18264;BME280;9258;48.668;9.172;2022-08-24T14:31:18;96683.59;;;32.97;26.58
18264;BME280;9258;48.668;9.172;2022-08-24T14:34:24;96677.97;;;32.49;27.95
18264;BME280;9258;48.668;9.172;2022-08-24T14:37:34;96670.06;;;32.34;29.05
18264;BME280;9258;48.668;9.172;2022-08-24T14:40:51;96668.91;;;32.08;29.41
18264;BME280;9258;48.668;9.172;2022-08-24T14:44:09;96662.28;;;32.06;30.23
18264;BME280;9258;48.668;9.172;2022-08-24T14:47:20;96670.13;;;31.88;30.67
18264;BME280;9258;48.668;9.172;2022-08-24T14:50:31;96670.03;;;31.81;31.09
18264;BME280;9258;48.668;9.172;2022-08-24T14:53:46;96667.56;;;31.72;31.27
18264;BME280;9258;48.668;9.172;2022-08-24T14:57:00;96667.09;;;31.67;31.98
18264;BME280;9258;48.668;9.172;2022-08-24T15:00:11;96657.69;;;31.83;32.13
18264;BME280;9258;48.668;9.172;2022-08-24T15:03:23;96652.59;;;31.78;31.31
18264;BME280;9258;48.668;9.172;2022-08-24T15:06:36;96664.03;;;31.68;32.35
18264;BME280;9258;48.668;9.172;2022-08-24T15:09:41;96658.06;;;31.59;32.92
18264;BME280;9258;48.668;9.172;2022-08-24T15:12:49;96657.53;;;31.50;32.79
18264;BME280;9258;48.668;9.172;2022-08-24T15:15:56;96657.94;;;31.52;33.41
18264;BME280;9258;48.668;9.172;2022-08-24T15:19:06;96658.53;;;31.42;33.71
18264;BME280;9258;48.668;9.172;2022-08-24T15:22:18;96659.75;;;31.44;33.76
18264;BME280;9258;48.668;9.172;2022-08-24T15:25:31;96664.09;;;31.49;33.01
18264;BME280;9258;48.668;9.172;2022-08-24T15:28:34;96658.00;;;31.33;33.75
18264;BME280;9258;48.668;9.172;2022-08-24T15:31:38;96656.38;;;31.28;33.55
18264;BME280;9258;48.668;9.172;2022-08-24T15:34:42;96656.75;;;31.27;32.59
18264;BME280;9258;48.668;9.172;2022-08-24T15:37:44;96654.34;;;31.22;33.44
18264;BME280;9258;48.668;9.172;2022-08-24T15:40:48;96661.59;;;31.40;33.65
18264;BME280;9258;48.668;9.172;2022-08-24T15:43:56;96658.84;;;31.37;34.04
18264;BME280;9258;48.668;9.172;2022-08-24T15:47:02;96657.91;;;31.26;34.05
18264;BME280;9258;48.668;9.172;2022-08-24T15:50:07;96655.53;;;31.05;33.66
18264;BME280;9258;48.668;9.172;2022-08-24T15:53:28;96649.16;;;30.94;34.01
18264;BME280;9258;48.668;9.172;2022-08-24T15:56:37;96662.63;;;30.90;35.04
18264;BME280;9258;48.668;9.172;2022-08-24T15:59:46;96669.88;;;30.67;35.80
18264;BME280;9258;48.668;9.172;2022-08-24T16:02:49;96668.25;;;30.62;35.42
18264;BME280;9258;48.668;9.172;2022-08-24T16:05:51;96664.88;;;30.69;35.59
18264;BME280;9258;48.668;9.172;2022-08-24T16:09:00;96666.09;;;30.52;36.18
18264;BME280;9258;48.668;9.172;2022-08-24T16:12:05;96670.41;;;30.37;37.16
18264;BME280;9258;48.668;9.172;2022-08-24T16:15:15;96670.59;;;30.29;37.28
18264;BME280;9258;48.668;9.172;2022-08-24T16:18:19;96665.47;;;30.24;37.12
18264;BME280;9258;48.668;9.172;2022-08-24T16:21:26;96668.63;;;30.10;37.13
18264;BME280;9258;48.668;9.172;2022-08-24T16:24:31;96669.28;;;30.03;37.48
18264;BME280;9258;48.668;9.172;2022-08-24T16:27:52;96664.75;;;29.76;37.59
18264;BME280;9258;48.668;9.172;2022-08-24T16:30:56;96666.16;;;29.54;38.60
18264;BME280;9258;48.668;9.172;2022-08-24T16:34:15;96670.84;;;29.42;38.50
18264;BME280;9258;48.668;9.172;2022-08-24T16:37:19;96662.91;;;29.33;38.60
18264;BME280;9258;48.668;9.172;2022-08-24T16:40:21;96663.22;;;29.16;38.88
18264;BME280;9258;48.668;9.172;2022-08-24T16:43:23;96663.97;;;29.00;39.65
18264;BME280;9258;48.668;9.172;2022-08-24T16:46:25;96665.03;;;29.12;39.54
18264;BME280;9258;48.668;9.172;2022-08-24T16:49:28;96663.19;;;29.00;39.99
18264;BME280;9258;48.668;9.172;2022-08-24T16:52:30;96660.56;;;28.88;40.25
18264;BME280;9258;48.668;9.172;2022-08-24T16:55:32;96667.88;;;28.75;40.88